sensor_id;sensor_type;location;lat;lon;timestamp;temperature;humidity
83327;DHT22;73250;55.594;13.020;2024-01-10T00:01:16;20.80;33.20
83327;DHT22;73250;55.594;13.020;2024-01-10T00:03:43;20.80;33.10
83327;DHT22;73250;55.594;13.020;2024-01-10T00:06:10;20.80;33.10
83327;DHT22;73250;55.594;13.020;2024-01-10T00:08:37;20.80;33.10
83327;DHT22;73250;55.594;13.020;2024-01-10T00:11:04;20.80;33.10
83327;DHT22;73250;55.594;13.020;2024-01-10T00:13:33;20.80;33.10
83327;DHT22;73250;55.594;13.020;2024-01-10T00:16:00;20.80;33.10
83327;DHT22;73250;55.594;13.020;2024-01-10T00:18:27;20.80;33.20
83327;DHT22;73250;55.594;13.020;2024-01-10T00:20:53;20.80;33.20
83327;DHT22;73250;55.594;13.020;2024-01-10T00:23:20;20.70;33.10
83327;DHT22;73250;55.594;13.020;2024-01-10T00:25:47;20.80;33.20
83327;DHT22;73250;55.594;13.020;2024-01-10T00:28:14;20.80;33.20
83327;DHT22;73250;55.594;13.020;2024-01-10T00:30:43;20.80;33.20
83327;DHT22;73250;55.594;13.020;2024-01-10T00:33:10;20.80;33.20
83327;DHT22;73250;55.594;13.020;2024-01-10T00:35:37;20.70;33.10
83327;DHT22;73250;55.594;13.020;2024-01-10T00:38:03;20.70;33.10
83327;DHT22;73250;55.594;13.020;2024-01-10T00:40:30;20.70;33.10
83327;DHT22;73250;55.594;13.020;2024-01-10T00:42:57;20.80;33.20
83327;DHT22;73250;55.594;13.020;2024-01-10T00:45:24;20.70;33.20
83327;DHT22;73250;55.594;13.020;2024-01-10T00:47:52;20.70;33.20
83327;DHT22;73250;55.594;13.020;2024-01-10T00:50:18;20.70;33.30
83327;DHT22;73250;55.594;13.020;2024-01-10T00:52:45;20.80;33.30
83327;DHT22;73250;55.594;13.020;2024-01-10T00:55:12;20.70;33.30
83327;DHT22;73250;55.594;13.020;2024-01-10T00:57:39;20.70;33.30
83327;DHT22;73250;55.594;13.020;2024-01-10T01:00:07;20.70;33.30
83327;DHT22;73250;55.594;13.020;2024-01-10T01:02:34;20.70;33.30
83327;DHT22;73250;55.594;13.020;2024-01-10T01:05:02;20.70;33.30
83327;DHT22;73250;55.594;13.020;2024-01-10T01:07:29;20.70;33.30
83327;DHT22;73250;55.594;13.020;2024-01-10T01:09:56;20.70;33.30
83327;DHT22;73250;55.594;13.020;2024-01-10T01:12:22;20.70;33.30
83327;DHT22;73250;55.594;13.020;2024-01-10T01:14:49;20.70;33.40
83327;DHT22;73250;55.594;13.020;2024-01-10T01:17:16;20.70;33.30
83327;DHT22;73250;55.594;13.020;2024-01-10T01:19:42;20.70;33.30
83327;DHT22;73250;55.594;13.020;2024-01-10T01:22:10;20.70;33.40
83327;DHT22;73250;55.594;13.020;2024-01-10T01:24:37;20.70;33.40
83327;DHT22;73250;55.594;13.020;2024-01-10T01:27:04;20.70;33.40
83327;DHT22;73250;55.594;13.020;2024-01-10T01:29:30;20.70;33.30
83327;DHT22;73250;55.594;13.020;2024-01-10T01:31:57;20.70;33.40
83327;DHT22;73250;55.594;13.020;2024-01-10T01:34:23;20.70;33.40
83327;DHT22;73250;55.594;13.020;2024-01-10T01:36:50;20.70;33.50
83327;DHT22;73250;55.594;13.020;2024-01-10T01:39:19;20.70;33.40
83327;DHT22;73250;55.594;13.020;2024-01-10T01:41:45;20.70;33.40
83327;DHT22;73250;55.594;13.020;2024-01-10T01:44:13;20.70;33.40
83327;DHT22;73250;55.594;13.020;2024-01-10T01:46:40;20.70;33.40
83327;DHT22;73250;55.594;13.020;2024-01-10T01:49:06;20.70;33.40
83327;DHT22;73250;55.594;13.020;2024-01-10T01:51:35;20.70;33.50
83327;DHT22;73250;55.594;13.020;2024-01-10T01:54:06;20.60;33.40
83327;DHT22;73250;55.594;13.020;2024-01-10T01:56:35;20.70;33.40
83327;DHT22;73250;55.594;13.020;2024-01-10T01:59:02;20.60;33.40
83327;DHT22;73250;55.594;13.020;2024-01-10T02:01:29;20.60;33.40
83327;DHT22;73250;55.594;13.020;2024-01-10T02:03:56;20.60;33.40
83327;DHT22;73250;55.594;13.020;2024-01-10T02:06:22;20.60;33.40
83327;DHT22;73250;55.594;13.020;2024-01-10T02:08:49;20.60;33.40
83327;DHT22;73250;55.594;13.020;2024-01-10T02:11:17;20.60;33.40
83327;DHT22;73250;55.594;13.020;2024-01-10T02:13:47;20.60;33.50
83327;DHT22;73250;55.594;13.020;2024-01-10T02:16:14;20.70;33.60
83327;DHT22;73250;55.594;13.020;2024-01-10T02:18:41;20.70;33.60
83327;DHT22;73250;55.594;13.020;2024-01-10T02:21:08;20.60;33.60
83327;DHT22;73250;55.594;13.020;2024-01-10T02:23:34;20.70;33.60
83327;DHT22;73250;55.594;13.020;2024-01-10T02:26:03;20.60;33.60
83327;DHT22;73250;55.594;13.020;2024-01-10T02:28:29;20.70;33.60
83327;DHT22;73250;55.594;13.020;2024-01-10T02:30:56;20.70;33.60
83327;DHT22;73250;55.594;13.020;2024-01-10T02:33:23;20.60;33.50
83327;DHT22;73250;55.594;13.020;2024-01-10T02:35:50;20.70;33.60
83327;DHT22;73250;55.594;13.020;2024-01-10T02:38:16;20.70;33.60
83327;DHT22;73250;55.594;13.020;2024-01-10T02:40:46;20.70;33.60
83327;DHT22;73250;55.594;13.020;2024-01-10T02:43:14;20.60;33.60
83327;DHT22;73250;55.594;13.020;2024-01-10T02:45:40;20.70;33.70
83327;DHT22;73250;55.594;13.020;2024-01-10T02:48:07;20.60;33.60
83327;DHT22;73250;55.594;13.020;2024-01-10T02:50:34;20.70;33.70
83327;DHT22;73250;55.594;13.020;2024-01-10T02:53:00;20.60;33.60
83327;DHT22;73250;55.594;13.020;2024-01-10T02:55:27;20.60;33.60
83327;DHT22;73250;55.594;13.020;2024-01-10T02:57:53;20.60;33.50
83327;DHT22;73250;55.594;13.020;2024-01-10T03:00:21;20.60;33.60
83327;DHT22;73250;55.594;13.020;2024-01-10T03:02:48;20.60;33.50
83327;DHT22;73250;55.594;13.020;2024-01-10T03:05:15;20.60;33.60
83327;DHT22;73250;55.594;13.020;2024-01-10T03:07:41;20.60;33.50
83327;DHT22;73250;55.594;13.020;2024-01-10T03:10:08;20.60;33.50
83327;DHT22;73250;55.594;13.020;2024-01-10T03:12:35;20.60;33.50
83327;DHT22;73250;55.594;13.020;2024-01-10T03:15:03;20.60;33.50
83327;DHT22;73250;55.594;13.020;2024-01-10T03:17:32;20.60;33.50
83327;DHT22;73250;55.594;13.020;2024-01-10T03:19:59;20.60;33.50
83327;DHT22;73250;55.594;13.020;2024-01-10T03:22:25;20.60;33.60
83327;DHT22;73250;55.594;13.020;2024-01-10T03:24:52;20.60;33.60
83327;DHT22;73250;55.594;13.020;2024-01-10T03:27:19;20.60;33.60
83327;DHT22;73250;55.594;13.020;2024-01-10T03:29:45;20.60;33.60
83327;DHT22;73250;55.594;13.020;2024-01-10T03:32:12;20.60;33.60
83327;DHT22;73250;55.594;13.020;2024-01-10T03:34:41;20.60;33.60
83327;DHT22;73250;55.594;13.020;2024-01-10T03:37:07;20.60;33.60
83327;DHT22;73250;55.594;13.020;2024-01-10T03:39:34;20.60;33.60
83327;DHT22;73250;55.594;13.020;2024-01-10T03:42:01;20.60;33.60
83327;DHT22;73250;55.594;13.020;2024-01-10T03:44:27;20.60;33.60
83327;DHT22;73250;55.594;13.020;2024-01-10T03:46:54;20.50;33.60
83327;DHT22;73250;55.594;13.020;2024-01-10T03:49:21;20.50;33.60
83327;DHT22;73250;55.594;13.020;2024-01-10T03:51:49;20.50;33.60
83327;DHT22;73250;55.594;13.020;2024-01-10T03:54:14;20.60;33.60
83327;DHT22;73250;55.594;13.020;2024-01-10T03:56:41;20.50;33.60
83327;DHT22;73250;55.594;13.020;2024-01-10T03:59:08;20.60;33.60
83327;DHT22;73250;55.594;13.020;2024-01-10T04:01:35;20.60;33.60
83327;DHT22;73250;55.594;13.020;2024-01-10T04:04:04;20.50;33.50
83327;DHT22;73250;55.594;13.020;2024-01-10T04:06:31;20.50;33.50
83327;DHT22;73250;55.594;13.020;2024-01-10T04:08:59;20.50;33.50
83327;DHT22;73250;55.594;13.020;2024-01-10T04:11:25;20.60;33.60
83327;DHT22;73250;55.594;13.020;2024-01-10T04:13:52;20.50;33.60
83327;DHT22;73250;55.594;13.020;2024-01-10T04:16:19;20.60;33.60
83327;DHT22;73250;55.594;13.020;2024-01-10T04:18:45;20.60;33.60
83327;DHT22;73250;55.594;13.020;2024-01-10T04:21:12;20.50;33.60
83327;DHT22;73250;55.594;13.020;2024-01-10T04:23:39;20.50;33.60
83327;DHT22;73250;55.594;13.020;2024-01-10T04:26:07;20.50;33.50
83327;DHT22;73250;55.594;13.020;2024-01-10T04:28:33;20.50;33.50
83327;DHT22;73250;55.594;13.020;2024-01-10T04:31:00;20.50;33.40
83327;DHT22;73250;55.594;13.020;2024-01-10T04:33:26;20.50;33.40
83327;DHT22;73250;55.594;13.020;2024-01-10T04:35:53;20.50;33.50
83327;DHT22;73250;55.594;13.020;2024-01-10T04:38:20;20.50;33.50
83327;DHT22;73250;55.594;13.020;2024-01-10T04:40:47;20.50;33.50
83327;DHT22;73250;55.594;13.020;2024-01-10T04:43:15;20.50;33.50
83327;DHT22;73250;55.594;13.020;2024-01-10T04:45:41;20.50;33.50
83327;DHT22;73250;55.594;13.020;2024-01-10T04:48:08;20.50;33.50
83327;DHT22;73250;55.594;13.020;2024-01-10T04:50:35;20.50;33.50
83327;DHT22;73250;55.594;13.020;2024-01-10T04:53:01;20.50;33.50
83327;DHT22;73250;55.594;13.020;2024-01-10T04:55:28;20.50;33.50
83327;DHT22;73250;55.594;13.020;2024-01-10T04:57:55;20.50;33.40
83327;DHT22;73250;55.594;13.020;2024-01-10T05:00:23;20.50;33.40
83327;DHT22;73250;55.594;13.020;2024-01-10T05:02:49;20.50;33.50
83327;DHT22;73250;55.594;13.020;2024-01-10T05:05:16;20.50;33.40
83327;DHT22;73250;55.594;13.020;2024-01-10T05:07:48;20.50;33.40
83327;DHT22;73250;55.594;13.020;2024-01-10T05:10:16;20.50;33.40
83327;DHT22;73250;55.594;13.020;2024-01-10T05:12:42;20.50;33.40
83327;DHT22;73250;55.594;13.020;2024-01-10T05:15:09;20.50;33.40
83327;DHT22;73250;55.594;13.020;2024-01-10T05:17:37;20.50;33.40
83327;DHT22;73250;55.594;13.020;2024-01-10T05:20:05;20.50;33.40
83327;DHT22;73250;55.594;13.020;2024-01-10T05:22:32;20.50;33.30
83327;DHT22;73250;55.594;13.020;2024-01-10T05:24:58;20.50;33.30
83327;DHT22;73250;55.594;13.020;2024-01-10T05:27:26;20.50;33.30
83327;DHT22;73250;55.594;13.020;2024-01-10T05:29:52;20.50;33.30
83327;DHT22;73250;55.594;13.020;2024-01-10T05:32:19;20.40;33.30
83327;DHT22;73250;55.594;13.020;2024-01-10T05:34:47;20.50;33.40
83327;DHT22;73250;55.594;13.020;2024-01-10T05:37:15;20.50;33.40
83327;DHT22;73250;55.594;13.020;2024-01-10T05:39:41;20.40;33.30
83327;DHT22;73250;55.594;13.020;2024-01-10T05:42:08;20.50;33.40
83327;DHT22;73250;55.594;13.020;2024-01-10T05:44:34;20.40;33.30
83327;DHT22;73250;55.594;13.020;2024-01-10T05:53:00;20.40;33.30
83327;DHT22;73250;55.594;13.020;2024-01-10T05:55:27;20.40;33.30
83327;DHT22;73250;55.594;13.020;2024-01-10T05:57:54;20.40;33.30
83327;DHT22;73250;55.594;13.020;2024-01-10T06:00:21;20.40;33.30
83327;DHT22;73250;55.594;13.020;2024-01-10T06:02:47;20.40;33.30
83327;DHT22;73250;55.594;13.020;2024-01-10T06:05:14;20.40;33.30
83327;DHT22;73250;55.594;13.020;2024-01-10T06:07:41;20.40;33.90
83327;DHT22;73250;55.594;13.020;2024-01-10T06:10:09;20.40;33.30
83327;DHT22;73250;55.594;13.020;2024-01-10T06:12:36;20.40;33.40
83327;DHT22;73250;55.594;13.020;2024-01-10T06:15:04;20.40;33.40
83327;DHT22;73250;55.594;13.020;2024-01-10T06:17:31;20.40;33.40
83327;DHT22;73250;55.594;13.020;2024-01-10T06:19:58;20.40;33.40
83327;DHT22;73250;55.594;13.020;2024-01-10T06:22:25;20.40;33.30
83327;DHT22;73250;55.594;13.020;2024-01-10T06:24:52;20.40;33.30
83327;DHT22;73250;55.594;13.020;2024-01-10T06:27:20;20.40;33.10
83327;DHT22;73250;55.594;13.020;2024-01-10T06:29:47;20.40;33.00
83327;DHT22;73250;55.594;13.020;2024-01-10T06:32:13;20.40;32.90
83327;DHT22;73250;55.594;13.020;2024-01-10T06:34:40;20.40;32.80
83327;DHT22;73250;55.594;13.020;2024-01-10T06:37:07;20.40;32.80
83327;DHT22;73250;55.594;13.020;2024-01-10T06:39:34;20.40;32.70
83327;DHT22;73250;55.594;13.020;2024-01-10T06:42:01;20.40;32.60
83327;DHT22;73250;55.594;13.020;2024-01-10T06:44:30;20.40;32.50
83327;DHT22;73250;55.594;13.020;2024-01-10T06:46:57;20.40;32.40
83327;DHT22;73250;55.594;13.020;2024-01-10T06:49:23;20.40;32.30
83327;DHT22;73250;55.594;13.020;2024-01-10T06:51:50;20.40;32.20
83327;DHT22;73250;55.594;13.020;2024-01-10T06:54:17;20.40;32.20
83327;DHT22;73250;55.594;13.020;2024-01-10T06:56:44;20.40;32.10
83327;DHT22;73250;55.594;13.020;2024-01-10T06:59:11;20.40;32.10
83327;DHT22;73250;55.594;13.020;2024-01-10T07:01:39;20.40;32.10
83327;DHT22;73250;55.594;13.020;2024-01-10T07:04:06;20.40;32.00
83327;DHT22;73250;55.594;13.020;2024-01-10T07:06:32;20.40;32.00
83327;DHT22;73250;55.594;13.020;2024-01-10T07:08:59;20.40;32.60
83327;DHT22;73250;55.594;13.020;2024-01-10T07:11:26;20.40;31.90
83327;DHT22;73250;55.594;13.020;2024-01-10T07:13:54;20.40;31.80
83327;DHT22;73250;55.594;13.020;2024-01-10T07:16:21;20.40;31.80
83327;DHT22;73250;55.594;13.020;2024-01-10T07:18:49;20.40;31.80
83327;DHT22;73250;55.594;13.020;2024-01-10T07:21:16;20.40;31.70
83327;DHT22;73250;55.594;13.020;2024-01-10T07:23:43;20.40;31.70
83327;DHT22;73250;55.594;13.020;2024-01-10T07:26:12;20.40;31.70
83327;DHT22;73250;55.594;13.020;2024-01-10T07:28:39;20.40;31.70
83327;DHT22;73250;55.594;13.020;2024-01-10T07:31:07;20.40;31.70
83327;DHT22;73250;55.594;13.020;2024-01-10T07:33:33;20.40;31.70
83327;DHT22;73250;55.594;13.020;2024-01-10T07:36:02;20.40;31.70
83327;DHT22;73250;55.594;13.020;2024-01-10T07:38:29;20.40;31.60
83327;DHT22;73250;55.594;13.020;2024-01-10T07:40:56;20.40;31.60
83327;DHT22;73250;55.594;13.020;2024-01-10T07:43:24;20.40;31.50
83327;DHT22;73250;55.594;13.020;2024-01-10T07:45:51;20.40;31.50
83327;DHT22;73250;55.594;13.020;2024-01-10T07:48:18;20.40;31.50
83327;DHT22;73250;55.594;13.020;2024-01-10T07:50:45;20.40;31.50
83327;DHT22;73250;55.594;13.020;2024-01-10T07:53:13;20.40;31.60
83327;DHT22;73250;55.594;13.020;2024-01-10T07:55:40;20.40;31.70
83327;DHT22;73250;55.594;13.020;2024-01-10T07:58:07;20.40;31.70
83327;DHT22;73250;55.594;13.020;2024-01-10T08:00:34;20.40;31.70
83327;DHT22;73250;55.594;13.020;2024-01-10T08:03:00;20.40;32.00
83327;DHT22;73250;55.594;13.020;2024-01-10T08:05:27;20.40;32.20
83327;DHT22;73250;55.594;13.020;2024-01-10T08:07:54;20.40;32.20
83327;DHT22;73250;55.594;13.020;2024-01-10T08:10:23;20.40;32.50
83327;DHT22;73250;55.594;13.020;2024-01-10T08:12:49;20.40;32.50
83327;DHT22;73250;55.594;13.020;2024-01-10T08:15:18;20.40;32.60
83327;DHT22;73250;55.594;13.020;2024-01-10T08:17:45;20.40;32.90
83327;DHT22;73250;55.594;13.020;2024-01-10T08:20:12;20.40;33.10
83327;DHT22;73250;55.594;13.020;2024-01-10T08:22:40;20.40;33.20
83327;DHT22;73250;55.594;13.020;2024-01-10T08:25:07;20.40;33.60
83327;DHT22;73250;55.594;13.020;2024-01-10T08:27:35;20.50;33.70
83327;DHT22;73250;55.594;13.020;2024-01-10T08:30:02;20.50;33.80
83327;DHT22;73250;55.594;13.020;2024-01-10T08:32:30;20.50;34.00
83327;DHT22;73250;55.594;13.020;2024-01-10T08:34:56;20.50;34.00
83327;DHT22;73250;55.594;13.020;2024-01-10T08:37:23;20.50;34.20
83327;DHT22;73250;55.594;13.020;2024-01-10T08:39:50;20.50;34.20
83327;DHT22;73250;55.594;13.020;2024-01-10T08:42:16;20.50;34.20
83327;DHT22;73250;55.594;13.020;2024-01-10T08:44:44;20.60;34.20
83327;DHT22;73250;55.594;13.020;2024-01-10T08:47:11;20.50;34.40
83327;DHT22;73250;55.594;13.020;2024-01-10T08:49:37;20.60;34.40
83327;DHT22;73250;55.594;13.020;2024-01-10T08:52:05;20.60;34.50
83327;DHT22;73250;55.594;13.020;2024-01-10T08:54:31;20.60;34.50
83327;DHT22;73250;55.594;13.020;2024-01-10T08:56:59;20.60;34.50
83327;DHT22;73250;55.594;13.020;2024-01-10T08:59:26;20.60;34.70
83327;DHT22;73250;55.594;13.020;2024-01-10T09:01:54;20.60;34.60
83327;DHT22;73250;55.594;13.020;2024-01-10T09:04:21;20.60;35.30
83327;DHT22;73250;55.594;13.020;2024-01-10T09:06:48;20.60;34.80
83327;DHT22;73250;55.594;13.020;2024-01-10T09:09:14;20.70;35.20
83327;DHT22;73250;55.594;13.020;2024-01-10T09:11:46;20.70;35.10
83327;DHT22;73250;55.594;13.020;2024-01-10T09:14:13;20.70;34.90
83327;DHT22;73250;55.594;13.020;2024-01-10T09:16:40;20.70;34.90
83327;DHT22;73250;55.594;13.020;2024-01-10T09:19:08;20.60;34.60
83327;DHT22;73250;55.594;13.020;2024-01-10T09:21:35;20.70;34.90
83327;DHT22;73250;55.594;13.020;2024-01-10T09:24:02;20.70;34.90
83327;DHT22;73250;55.594;13.020;2024-01-10T09:26:30;20.70;35.20
83327;DHT22;73250;55.594;13.020;2024-01-10T09:28:57;20.70;35.30
83327;DHT22;73250;55.594;13.020;2024-01-10T09:31:24;20.70;35.20
83327;DHT22;73250;55.594;13.020;2024-01-10T09:33:51;20.70;35.20
83327;DHT22;73250;55.594;13.020;2024-01-10T09:36:19;20.70;34.90
83327;DHT22;73250;55.594;13.020;2024-01-10T09:38:45;20.70;35.40
83327;DHT22;73250;55.594;13.020;2024-01-10T09:41:12;20.70;35.50
83327;DHT22;73250;55.594;13.020;2024-01-10T09:43:38;20.70;35.10
83327;DHT22;73250;55.594;13.020;2024-01-10T09:46:06;20.70;35.30
83327;DHT22;73250;55.594;13.020;2024-01-10T09:48:34;20.80;35.50
83327;DHT22;73250;55.594;13.020;2024-01-10T09:51:01;20.80;35.10
83327;DHT22;73250;55.594;13.020;2024-01-10T09:53:31;20.80;35.50
83327;DHT22;73250;55.594;13.020;2024-01-10T09:55:57;20.70;35.40
83327;DHT22;73250;55.594;13.020;2024-01-10T09:58:26;20.80;35.30
83327;DHT22;73250;55.594;13.020;2024-01-10T10:00:53;20.80;35.30
83327;DHT22;73250;55.594;13.020;2024-01-10T10:03:20;20.80;35.20
83327;DHT22;73250;55.594;13.020;2024-01-10T10:05:47;20.80;35.20
83327;DHT22;73250;55.594;13.020;2024-01-10T10:08:14;20.80;35.20
83327;DHT22;73250;55.594;13.020;2024-01-10T10:10:49;20.80;35.20
83327;DHT22;73250;55.594;13.020;2024-01-10T10:13:26;20.80;35.40
83327;DHT22;73250;55.594;13.020;2024-01-10T10:16:00;20.90;35.40
83327;DHT22;73250;55.594;13.020;2024-01-10T10:18:27;20.80;35.70
83327;DHT22;73250;55.594;13.020;2024-01-10T10:21:10;20.80;35.90
83327;DHT22;73250;55.594;13.020;2024-01-10T10:23:37;20.90;35.70
83327;DHT22;73250;55.594;13.020;2024-01-10T10:26:13;20.80;35.70
83327;DHT22;73250;55.594;13.020;2024-01-10T10:28:45;20.90;35.70
83327;DHT22;73250;55.594;13.020;2024-01-10T10:31:11;20.90;35.90
83327;DHT22;73250;55.594;13.020;2024-01-10T10:33:38;20.90;35.70
83327;DHT22;73250;55.594;13.020;2024-01-10T10:36:06;20.90;35.60
83327;DHT22;73250;55.594;13.020;2024-01-10T10:38:32;20.90;35.70
83327;DHT22;73250;55.594;13.020;2024-01-10T10:40:59;20.90;35.80
83327;DHT22;73250;55.594;13.020;2024-01-10T10:43:29;20.90;35.70
83327;DHT22;73250;55.594;13.020;2024-01-10T10:45:58;20.90;35.70
83327;DHT22;73250;55.594;13.020;2024-01-10T10:48:25;20.90;35.40
83327;DHT22;73250;55.594;13.020;2024-01-10T10:50:58;20.90;35.40
83327;DHT22;73250;55.594;13.020;2024-01-10T10:53:26;20.90;35.70
83327;DHT22;73250;55.594;13.020;2024-01-10T10:55:54;20.90;35.60
83327;DHT22;73250;55.594;13.020;2024-01-10T10:58:21;21.00;35.60
83327;DHT22;73250;55.594;13.020;2024-01-10T11:00:50;21.00;35.60
83327;DHT22;73250;55.594;13.020;2024-01-10T11:03:17;21.00;35.70
83327;DHT22;73250;55.594;13.020;2024-01-10T11:05:46;21.00;35.60
83327;DHT22;73250;55.594;13.020;2024-01-10T11:08:18;21.00;35.60
83327;DHT22;73250;55.594;13.020;2024-01-10T11:10:46;21.00;35.60
83327;DHT22;73250;55.594;13.020;2024-01-10T11:13:42;21.00;35.40
83327;DHT22;73250;55.594;13.020;2024-01-10T11:16:38;21.00;35.50
83327;DHT22;73250;55.594;13.020;2024-01-10T11:19:27;21.00;35.60
83327;DHT22;73250;55.594;13.020;2024-01-10T11:22:07;21.00;35.60
83327;DHT22;73250;55.594;13.020;2024-01-10T11:24:37;21.00;35.80
83327;DHT22;73250;55.594;13.020;2024-01-10T11:27:10;21.00;35.70
83327;DHT22;73250;55.594;13.020;2024-01-10T11:29:37;21.00;35.70
83327;DHT22;73250;55.594;13.020;2024-01-10T11:32:06;21.00;35.90
83327;DHT22;73250;55.594;13.020;2024-01-10T11:34:35;21.00;35.90
83327;DHT22;73250;55.594;13.020;2024-01-10T11:37:11;21.00;35.80
83327;DHT22;73250;55.594;13.020;2024-01-10T11:39:41;21.00;35.80
83327;DHT22;73250;55.594;13.020;2024-01-10T11:42:08;21.00;35.80
83327;DHT22;73250;55.594;13.020;2024-01-10T11:44:46;21.00;35.80
83327;DHT22;73250;55.594;13.020;2024-01-10T11:47:15;21.00;35.90
83327;DHT22;73250;55.594;13.020;2024-01-10T11:49:54;21.00;35.80
83327;DHT22;73250;55.594;13.020;2024-01-10T11:52:21;21.00;35.90
83327;DHT22;73250;55.594;13.020;2024-01-10T11:54:48;21.00;35.80
83327;DHT22;73250;55.594;13.020;2024-01-10T11:57:19;21.00;35.90
83327;DHT22;73250;55.594;13.020;2024-01-10T11:59:47;21.10;35.80
83327;DHT22;73250;55.594;13.020;2024-01-10T12:02:15;21.10;35.90
83327;DHT22;73250;55.594;13.020;2024-01-10T12:04:42;21.10;35.90
83327;DHT22;73250;55.594;13.020;2024-01-10T12:07:11;21.10;35.90
83327;DHT22;73250;55.594;13.020;2024-01-10T12:09:38;21.10;36.30
83327;DHT22;73250;55.594;13.020;2024-01-10T12:12:06;21.10;36.10
83327;DHT22;73250;55.594;13.020;2024-01-10T12:14:33;21.10;36.10
83327;DHT22;73250;55.594;13.020;2024-01-10T12:17:01;21.10;36.50
83327;DHT22;73250;55.594;13.020;2024-01-10T12:19:31;21.20;36.30
83327;DHT22;73250;55.594;13.020;2024-01-10T12:21:57;21.20;36.20
83327;DHT22;73250;55.594;13.020;2024-01-10T12:24:27;21.20;36.20
83327;DHT22;73250;55.594;13.020;2024-01-10T12:26:55;21.20;36.00
83327;DHT22;73250;55.594;13.020;2024-01-10T12:29:22;21.20;36.10
83327;DHT22;73250;55.594;13.020;2024-01-10T12:31:50;21.20;36.00
83327;DHT22;73250;55.594;13.020;2024-01-10T12:34:17;21.20;36.00
83327;DHT22;73250;55.594;13.020;2024-01-10T12:36:45;21.20;36.30
83327;DHT22;73250;55.594;13.020;2024-01-10T12:39:13;21.20;37.00
83327;DHT22;73250;55.594;13.020;2024-01-10T12:41:40;21.30;36.80
83327;DHT22;73250;55.594;13.020;2024-01-10T12:44:07;21.30;36.50
83327;DHT22;73250;55.594;13.020;2024-01-10T12:46:34;21.30;36.80
83327;DHT22;73250;55.594;13.020;2024-01-10T12:49:02;21.30;36.80
83327;DHT22;73250;55.594;13.020;2024-01-10T12:51:31;21.30;36.80
83327;DHT22;73250;55.594;13.020;2024-01-10T12:54:00;21.30;36.70
83327;DHT22;73250;55.594;13.020;2024-01-10T12:56:27;21.30;36.90
83327;DHT22;73250;55.594;13.020;2024-01-10T12:58:54;21.30;36.70
83327;DHT22;73250;55.594;13.020;2024-01-10T13:01:21;21.30;36.40
83327;DHT22;73250;55.594;13.020;2024-01-10T13:03:48;21.30;36.40
83327;DHT22;73250;55.594;13.020;2024-01-10T13:06:15;21.30;36.10
83327;DHT22;73250;55.594;13.020;2024-01-10T13:08:42;21.30;36.00
83327;DHT22;73250;55.594;13.020;2024-01-10T13:11:10;21.30;36.10
83327;DHT22;73250;55.594;13.020;2024-01-10T13:13:37;21.30;36.00
83327;DHT22;73250;55.594;13.020;2024-01-10T13:16:05;21.40;36.10
83327;DHT22;73250;55.594;13.020;2024-01-10T13:18:32;21.40;36.20
83327;DHT22;73250;55.594;13.020;2024-01-10T13:20:59;21.40;36.30
83327;DHT22;73250;55.594;13.020;2024-01-10T13:23:26;21.40;36.20
83327;DHT22;73250;55.594;13.020;2024-01-10T13:25:52;21.40;35.90
83327;DHT22;73250;55.594;13.020;2024-01-10T13:28:20;21.40;35.80
83327;DHT22;73250;55.594;13.020;2024-01-10T13:30:47;21.40;36.30
83327;DHT22;73250;55.594;13.020;2024-01-10T13:33:16;21.40;36.20
83327;DHT22;73250;55.594;13.020;2024-01-10T13:35:44;21.40;36.40
83327;DHT22;73250;55.594;13.020;2024-01-10T13:38:10;21.40;36.20
83327;DHT22;73250;55.594;13.020;2024-01-10T13:40:37;21.40;36.10
83327;DHT22;73250;55.594;13.020;2024-01-10T13:43:04;21.40;36.20
83327;DHT22;73250;55.594;13.020;2024-01-10T13:45:32;21.40;36.10
83327;DHT22;73250;55.594;13.020;2024-01-10T13:47:58;21.40;35.80
83327;DHT22;73250;55.594;13.020;2024-01-10T13:50:25;21.50;36.40
83327;DHT22;73250;55.594;13.020;2024-01-10T13:52:53;21.50;36.00
83327;DHT22;73250;55.594;13.020;2024-01-10T13:55:20;21.50;36.10
83327;DHT22;73250;55.594;13.020;2024-01-10T13:57:48;21.50;36.00
83327;DHT22;73250;55.594;13.020;2024-01-10T14:00:15;21.50;35.90
83327;DHT22;73250;55.594;13.020;2024-01-10T14:02:43;21.50;35.90
83327;DHT22;73250;55.594;13.020;2024-01-10T14:05:10;21.50;35.90
83327;DHT22;73250;55.594;13.020;2024-01-10T14:07:37;21.50;35.80
83327;DHT22;73250;55.594;13.020;2024-01-10T14:10:04;21.50;35.80
83327;DHT22;73250;55.594;13.020;2024-01-10T14:12:31;21.50;35.80
83327;DHT22;73250;55.594;13.020;2024-01-10T14:14:58;21.50;36.00
83327;DHT22;73250;55.594;13.020;2024-01-10T14:17:26;21.50;35.80
83327;DHT22;73250;55.594;13.020;2024-01-10T14:19:54;21.50;35.80
83327;DHT22;73250;55.594;13.020;2024-01-10T14:22:22;21.50;35.90
83327;DHT22;73250;55.594;13.020;2024-01-10T14:24:49;21.50;35.70
83327;DHT22;73250;55.594;13.020;2024-01-10T14:27:16;21.60;35.80
83327;DHT22;73250;55.594;13.020;2024-01-10T14:29:43;21.60;35.70
83327;DHT22;73250;55.594;13.020;2024-01-10T14:32:09;21.60;35.60
83327;DHT22;73250;55.594;13.020;2024-01-10T14:34:39;21.60;35.80
83327;DHT22;73250;55.594;13.020;2024-01-10T14:37:08;21.60;35.90
83327;DHT22;73250;55.594;13.020;2024-01-10T14:39:34;21.60;35.90
83327;DHT22;73250;55.594;13.020;2024-01-10T14:42:05;21.60;35.90
83327;DHT22;73250;55.594;13.020;2024-01-10T14:44:32;21.60;35.90
83327;DHT22;73250;55.594;13.020;2024-01-10T14:46:59;21.60;36.00
83327;DHT22;73250;55.594;13.020;2024-01-10T14:49:26;21.60;36.00
83327;DHT22;73250;55.594;13.020;2024-01-10T14:51:52;21.60;36.50
83327;DHT22;73250;55.594;13.020;2024-01-10T14:54:20;21.70;36.10
83327;DHT22;73250;55.594;13.020;2024-01-10T14:56:47;21.70;36.20
83327;DHT22;73250;55.594;13.020;2024-01-10T14:59:14;21.70;36.30
83327;DHT22;73250;55.594;13.020;2024-01-10T15:01:43;21.70;36.20
83327;DHT22;73250;55.594;13.020;2024-01-10T15:04:10;21.70;36.20
83327;DHT22;73250;55.594;13.020;2024-01-10T15:06:42;21.70;36.90
83327;DHT22;73250;55.594;13.020;2024-01-10T15:09:09;21.70;36.30
83327;DHT22;73250;55.594;13.020;2024-01-10T15:11:39;21.70;36.10
83327;DHT22;73250;55.594;13.020;2024-01-10T15:14:06;21.70;36.40
83327;DHT22;73250;55.594;13.020;2024-01-10T15:16:33;21.70;37.00
83327;DHT22;73250;55.594;13.020;2024-01-10T15:18:59;21.70;36.70
83327;DHT22;73250;55.594;13.020;2024-01-10T15:21:26;21.70;36.20
83327;DHT22;73250;55.594;13.020;2024-01-10T15:23:53;21.70;36.60